createdAt,value
2023-05-05T00:00:53.348Z,28.26
2023-05-05T00:01:53.424Z,28.36
2023-05-05T00:02:53.370Z,28.45
2023-05-05T00:03:53.379Z,28.26
2023-05-05T00:04:53.341Z,28.07
2023-05-05T00:05:53.351Z,28.16
2023-05-05T00:06:53.348Z,27.78
2023-05-05T00:07:53.349Z,28.45
2023-05-05T00:08:53.353Z,28.36
2023-05-05T00:09:53.356Z,28.26
2023-05-05T00:10:53.365Z,28.26
2023-05-05T00:11:53.357Z,28.07
2023-05-05T00:12:53.415Z,28.07
2023-05-05T00:13:53.358Z,28.26
2023-05-05T00:14:53.364Z,28.26
2023-05-05T00:15:53.471Z,28.26
2023-05-05T00:16:53.437Z,28.16
2023-05-05T00:17:53.512Z,27.97
2023-05-05T00:18:53.371Z,28.26
2023-05-05T00:19:53.525Z,27.97
2023-05-05T00:20:53.371Z,27.97
2023-05-05T00:21:53.387Z,28.26
2023-05-05T00:22:53.378Z,28.07
2023-05-05T00:23:53.382Z,27.97
2023-05-05T00:24:53.389Z,28.26
2023-05-05T00:25:53.372Z,28.16
2023-05-05T00:26:53.386Z,27.97
2023-05-05T00:27:53.394Z,27.87
2023-05-05T00:28:53.393Z,28.07
2023-05-05T00:29:53.393Z,28.26
2023-05-05T00:30:53.425Z,27.97
2023-05-05T00:31:53.426Z,28.16
2023-05-05T00:32:53.438Z,28.16
2023-05-05T00:33:53.400Z,28.07
2023-05-05T00:34:53.400Z,28.16
2023-05-05T00:35:53.406Z,28.07
2023-05-05T00:36:53.407Z,28.07
2023-05-05T00:37:53.404Z,28.26
2023-05-05T00:38:53.404Z,27.97
2023-05-05T00:39:53.417Z,28.07
2023-05-05T00:40:53.425Z,28.07
2023-05-05T00:41:53.421Z,27.78
2023-05-05T00:42:53.440Z,28.07
2023-05-05T00:43:53.419Z,27.97
2023-05-05T00:44:53.428Z,27.87
2023-05-05T00:45:53.421Z,27.39
2023-05-05T00:46:53.427Z,27.68
2023-05-05T00:47:53.498Z,27.78
2023-05-05T00:48:53.523Z,27.49
2023-05-05T00:49:53.436Z,27.39
2023-05-05T00:50:53.432Z,27.29
2023-05-05T00:51:53.428Z,26.81
2023-05-05T00:52:53.435Z,27.20
2023-05-05T00:53:53.456Z,27.20
2023-05-05T00:54:53.438Z,27.01
2023-05-05T00:55:53.440Z,27.29
2023-05-05T00:56:53.455Z,27.20
2023-05-05T00:57:53.441Z,27.29
2023-05-05T00:58:53.447Z,27.20
2023-05-05T00:59:53.450Z,27.01
2023-05-05T01:00:53.448Z,26.81
2023-05-05T01:01:53.475Z,27.20
2023-05-05T01:02:53.525Z,27.01
2023-05-05T01:03:53.590Z,27.20
2023-05-05T01:04:53.459Z,27.01
2023-05-05T01:05:53.456Z,27.01
2023-05-05T01:06:53.460Z,27.01
2023-05-05T01:07:53.469Z,27.11
2023-05-05T01:08:53.465Z,26.81
2023-05-05T01:10:01.480Z,27.20
2023-05-05T01:10:53.465Z,27.11
2023-05-05T01:11:53.465Z,26.81
2023-05-05T01:12:53.500Z,27.11
2023-05-05T01:13:53.483Z,27.01
2023-05-05T01:14:53.475Z,27.01
2023-05-05T01:15:53.580Z,26.91
2023-05-05T01:16:53.484Z,26.72
2023-05-05T01:17:53.577Z,26.91
2023-05-05T01:18:53.481Z,27.11
2023-05-05T01:19:53.521Z,26.72
2023-05-05T01:20:53.494Z,26.81
2023-05-05T01:21:53.499Z,27.20
2023-05-05T01:22:53.489Z,27.01
2023-05-05T01:23:53.499Z,27.01
2023-05-05T01:24:53.489Z,26.81
2023-05-05T01:25:53.490Z,26.72
2023-05-05T01:26:53.494Z,26.81
2023-05-05T01:27:53.496Z,26.72
2023-05-05T01:28:53.500Z,26.81
2023-05-05T01:29:53.499Z,26.72
2023-05-05T01:30:53.501Z,26.62
2023-05-05T01:31:53.645Z,26.72
2023-05-05T01:32:53.529Z,26.81
2023-05-05T01:33:53.505Z,26.72
2023-05-05T01:34:53.512Z,26.81
2023-05-05T01:35:53.534Z,26.72
2023-05-05T01:36:53.514Z,26.81
2023-05-05T01:37:53.512Z,26.91
2023-05-05T01:38:53.519Z,26.81
2023-05-05T01:39:53.517Z,26.43
2023-05-05T01:40:53.519Z,26.81
2023-05-05T01:41:53.524Z,27.11
2023-05-05T01:42:53.520Z,27.01
2023-05-05T01:43:53.524Z,26.81
2023-05-05T01:44:53.529Z,26.72
2023-05-05T01:45:53.560Z,26.62
2023-05-05T01:46:53.526Z,26.72
2023-05-05T01:47:53.577Z,26.62
2023-05-05T01:48:53.541Z,26.81
2023-05-05T01:49:53.530Z,26.72
2023-05-05T01:50:53.535Z,26.81
2023-05-05T01:51:53.564Z,26.62
2023-05-05T01:52:53.535Z,26.91
2023-05-05T01:53:53.535Z,26.91
2023-05-05T01:54:53.546Z,26.53
2023-05-05T01:55:53.544Z,26.53
2023-05-05T01:56:53.542Z,26.90
2023-05-05T01:57:53.551Z,26.62
2023-05-05T01:58:53.546Z,26.53
2023-05-05T01:59:53.547Z,26.43
2023-05-05T02:00:53.575Z,26.51
2023-05-05T02:01:53.561Z,26.43
2023-05-05T02:02:53.608Z,26.53
2023-05-05T02:03:53.561Z,26.43
2023-05-05T02:04:53.606Z,26.33
2023-05-05T02:05:53.558Z,26.70
2023-05-05T02:06:53.557Z,26.53
2023-05-05T02:07:53.582Z,26.61
2023-05-05T02:08:53.570Z,26.62
2023-05-05T02:09:53.562Z,26.53
2023-05-05T02:10:53.576Z,26.32
2023-05-05T02:11:53.570Z,26.43
2023-05-05T02:12:53.628Z,26.72
2023-05-05T02:13:53.614Z,26.43
2023-05-05T02:14:53.579Z,26.81
2023-05-05T02:15:53.598Z,26.23
2023-05-05T02:16:53.580Z,26.62
2023-05-05T02:17:53.583Z,26.81
2023-05-05T02:18:53.579Z,26.14
2023-05-05T02:19:53.590Z,26.42
2023-05-05T02:20:53.599Z,27.00
2023-05-05T02:21:53.607Z,26.61
2023-05-05T02:22:53.592Z,26.51
2023-05-05T02:23:53.618Z,26.32
2023-05-05T02:24:53.647Z,26.91
2023-05-05T02:25:53.596Z,26.43
2023-05-05T02:26:53.601Z,25.85
2023-05-05T02:27:53.607Z,26.43
2023-05-05T02:28:53.608Z,26.32
2023-05-05T02:29:53.608Z,26.53
2023-05-05T02:30:53.616Z,26.23
2023-05-05T02:31:53.685Z,27.01
2023-05-05T02:32:53.706Z,26.33
2023-05-05T02:33:53.611Z,26.42
2023-05-05T02:34:53.882Z,26.91
2023-05-05T02:35:53.614Z,26.81
2023-05-05T02:36:53.629Z,26.51
2023-05-05T02:37:53.622Z,26.23
2023-05-05T02:38:53.621Z,26.80
2023-05-05T02:39:53.640Z,26.81
2023-05-05T02:40:53.623Z,26.61
2023-05-05T02:41:53.644Z,26.32
2023-05-05T02:42:53.673Z,26.32
2023-05-05T02:43:53.637Z,26.43
2023-05-05T02:44:53.628Z,26.14
2023-05-05T02:45:53.631Z,26.23
2023-05-05T02:46:53.667Z,26.33
2023-05-05T02:47:53.708Z,26.42
2023-05-05T02:48:53.643Z,26.33
2023-05-05T02:49:53.792Z,26.43
2023-05-05T02:50:53.640Z,26.33
2023-05-05T02:51:53.651Z,25.85
2023-05-05T02:52:53.650Z,25.85
2023-05-05T02:53:53.643Z,26.23
2023-05-05T02:54:53.644Z,26.33
2023-05-05T02:55:53.672Z,26.33
2023-05-05T02:56:53.659Z,26.32
2023-05-05T02:57:53.650Z,26.43
2023-05-05T02:58:53.648Z,26.14
2023-05-05T02:59:53.806Z,26.22
2023-05-05T03:00:53.662Z,26.22
2023-05-05T03:01:53.722Z,26.33
2023-05-05T03:02:53.750Z,26.42
2023-05-05T03:03:53.736Z,26.32
2023-05-05T03:04:53.663Z,26.32
2023-05-05T03:05:53.675Z,26.23
2023-05-05T03:06:53.665Z,26.22
2023-05-05T03:07:53.674Z,26.32
2023-05-05T03:08:53.670Z,26.32
2023-05-05T03:09:53.674Z,25.74
2023-05-05T03:10:53.670Z,25.93
2023-05-05T03:11:53.703Z,25.85
2023-05-05T03:12:53.723Z,26.04
2023-05-05T03:13:53.683Z,25.95
2023-05-05T03:14:53.688Z,25.95
2023-05-05T03:15:53.702Z,26.42
2023-05-05T03:16:53.698Z,25.85
2023-05-05T03:17:53.729Z,26.04
2023-05-05T03:18:53.688Z,26.32
2023-05-05T03:19:53.685Z,26.32
2023-05-05T03:20:53.700Z,26.43
2023-05-05T03:21:53.693Z,26.33
2023-05-05T03:22:53.687Z,25.95
2023-05-05T03:23:53.689Z,26.22
2023-05-05T03:24:53.691Z,25.93
2023-05-05T03:25:53.694Z,25.93
2023-05-05T03:26:53.700Z,26.22
2023-05-05T03:27:53.722Z,25.66
2023-05-05T03:28:53.702Z,25.75
2023-05-05T03:29:53.699Z,25.85
2023-05-05T03:30:53.701Z,26.33
2023-05-05T03:31:53.723Z,25.93
2023-05-05T03:32:53.725Z,26.32
2023-05-05T03:33:53.708Z,26.23
2023-05-05T03:34:53.710Z,25.84
2023-05-05T03:35:53.712Z,26.23
2023-05-05T03:36:53.716Z,25.84
2023-05-05T03:37:53.713Z,25.66
2023-05-05T03:38:53.712Z,25.64
2023-05-05T03:39:53.716Z,25.66
2023-05-05T03:40:53.721Z,25.75
2023-05-05T03:41:53.718Z,25.74
2023-05-05T03:42:53.717Z,25.66
2023-05-05T03:43:53.759Z,25.64
2023-05-05T03:44:53.730Z,26.43
2023-05-05T03:45:53.758Z,25.85
2023-05-05T03:46:53.730Z,26.42
2023-05-05T03:47:53.739Z,25.85
2023-05-05T03:48:53.733Z,26.03
2023-05-05T03:49:53.757Z,25.66
2023-05-05T03:50:53.738Z,25.85
2023-05-05T03:51:53.743Z,25.93
2023-05-05T03:52:53.736Z,25.84
2023-05-05T03:53:53.744Z,25.46
2023-05-05T03:54:53.741Z,25.75
2023-05-05T03:55:53.741Z,25.85
2023-05-05T03:56:53.758Z,25.45
2023-05-05T03:57:53.750Z,25.56
2023-05-05T03:58:53.744Z,25.35
2023-05-05T03:59:53.779Z,25.64
2023-05-05T04:00:53.754Z,25.56
2023-05-05T04:01:53.829Z,25.27
2023-05-05T04:02:53.818Z,25.46
2023-05-05T04:03:53.798Z,25.84
2023-05-05T04:04:53.759Z,25.46
2023-05-05T04:05:53.772Z,25.26
2023-05-05T04:06:53.779Z,25.18
2023-05-05T04:07:53.781Z,25.95
2023-05-05T04:08:53.781Z,25.46
2023-05-05T04:09:53.766Z,25.45
2023-05-05T04:10:53.768Z,25.64
2023-05-05T04:11:53.772Z,25.75
2023-05-05T04:12:53.847Z,25.45
2023-05-05T04:13:53.776Z,25.37
2023-05-05T04:14:53.776Z,25.27
2023-05-05T04:15:53.829Z,25.56
2023-05-05T04:16:53.778Z,25.75
2023-05-05T04:17:53.801Z,25.46
2023-05-05T04:18:53.790Z,25.46
2023-05-05T04:19:53.795Z,25.64
2023-05-05T04:20:53.793Z,25.95
2023-05-05T04:21:53.788Z,25.64
2023-05-05T04:22:53.803Z,25.95
2023-05-05T04:23:53.811Z,25.35
2023-05-05T04:24:53.792Z,25.45
2023-05-05T04:25:53.795Z,25.45
2023-05-05T04:26:53.801Z,25.85
2023-05-05T04:27:53.803Z,25.56
2023-05-05T04:28:53.816Z,25.18
2023-05-05T04:29:53.951Z,25.85
2023-05-05T04:30:53.858Z,25.74
2023-05-05T04:31:53.834Z,25.56
2023-05-05T04:32:53.901Z,25.64
2023-05-05T04:33:53.805Z,25.45
2023-05-05T04:34:53.809Z,26.23
2023-05-05T04:35:53.815Z,25.55
2023-05-05T04:36:53.810Z,26.33
2023-05-05T04:37:53.814Z,25.85
2023-05-05T04:38:53.867Z,25.84
2023-05-05T04:39:53.831Z,25.74
2023-05-05T04:40:53.827Z,25.74
2023-05-05T04:41:53.830Z,26.03
2023-05-05T04:42:53.859Z,25.75
2023-05-05T04:43:53.832Z,25.75
2023-05-05T04:44:53.826Z,25.56
2023-05-05T04:45:53.833Z,25.46
2023-05-05T04:46:53.905Z,25.46
2023-05-05T04:47:53.904Z,25.37
2023-05-05T04:48:53.834Z,25.46
2023-05-05T04:49:53.835Z,25.18
2023-05-05T04:50:53.838Z,25.46
2023-05-05T04:51:53.861Z,25.46
2023-05-05T04:52:53.856Z,25.66
2023-05-05T04:53:53.841Z,25.75
2023-05-05T04:54:53.842Z,25.66
2023-05-05T04:55:53.844Z,25.75
2023-05-05T04:56:53.842Z,25.56
2023-05-05T04:57:53.844Z,25.37
2023-05-05T04:58:53.857Z,25.18
2023-05-05T04:59:53.857Z,25.37
2023-05-05T05:00:53.861Z,25.66
2023-05-05T05:01:53.878Z,25.56
2023-05-05T05:02:53.951Z,25.75
2023-05-05T05:03:53.945Z,25.66
2023-05-05T05:04:53.864Z,26.14
2023-05-05T05:05:53.873Z,25.85
2023-05-05T05:06:53.877Z,26.23
2023-05-05T05:07:53.863Z,26.33
2023-05-05T05:08:53.873Z,26.23
2023-05-05T05:09:53.878Z,26.33
2023-05-05T05:10:53.865Z,26.33
2023-05-05T05:11:53.879Z,25.45
2023-05-05T05:12:53.908Z,26.42
2023-05-05T05:13:53.889Z,26.14
2023-05-05T05:14:53.884Z,26.33
2023-05-05T05:15:53.883Z,26.43
2023-05-05T05:16:53.899Z,26.72
2023-05-05T05:17:53.923Z,26.72
2023-05-05T05:18:53.882Z,26.53
2023-05-05T05:19:53.910Z,26.72
2023-05-05T05:20:53.893Z,27.11
2023-05-05T05:21:53.894Z,26.81
2023-05-05T05:22:53.893Z,26.81
2023-05-05T05:23:53.886Z,27.20
2023-05-05T05:24:53.896Z,27.11
2023-05-05T05:25:53.902Z,27.11
2023-05-05T05:26:53.927Z,27.01
2023-05-05T05:28:06.076Z,27.11
2023-05-05T05:28:53.899Z,27.39
2023-05-05T05:29:53.956Z,27.49
2023-05-05T05:30:53.904Z,27.29
2023-05-05T05:31:54.074Z,27.49
2023-05-05T05:32:53.930Z,27.49
2023-05-05T05:33:53.912Z,27.59
2023-05-05T05:34:53.910Z,27.49
2023-05-05T05:35:53.937Z,27.68
2023-05-05T05:36:53.912Z,27.87
2023-05-05T05:37:53.920Z,28.16
2023-05-05T05:38:53.921Z,27.78
2023-05-05T05:39:53.922Z,27.78
2023-05-05T05:40:53.923Z,27.78
2023-05-05T05:41:53.916Z,27.78
2023-05-05T05:42:53.932Z,27.87
2023-05-05T05:43:53.926Z,27.97
2023-05-05T05:44:53.926Z,27.87
2023-05-05T05:45:53.959Z,28.16
2023-05-05T05:46:53.933Z,28.16
2023-05-05T05:47:53.981Z,28.45
2023-05-05T05:48:53.933Z,28.64
2023-05-05T05:49:53.934Z,28.45
2023-05-05T05:50:53.944Z,28.26
2023-05-05T05:51:53.969Z,28.36
2023-05-05T05:52:53.936Z,28.45
2023-05-05T05:53:53.940Z,28.74
2023-05-05T05:54:53.973Z,28.64
2023-05-05T05:55:53.964Z,29.61
2023-05-05T05:56:53.949Z,29.22
2023-05-05T05:57:53.951Z,29.32
2023-05-05T05:58:53.947Z,29.80
2023-05-05T05:59:54.009Z,30.00
2023-05-05T06:00:53.952Z,30.29
2023-05-05T06:01:53.955Z,30.38
2023-05-05T06:02:54.004Z,30.29
2023-05-05T06:03:54.023Z,30.19
2023-05-05T06:04:53.964Z,30.38
2023-05-05T06:05:53.990Z,30.67
2023-05-05T06:06:53.964Z,30.19
2023-05-05T06:07:53.986Z,30.29
2023-05-05T06:08:53.974Z,30.29
2023-05-05T06:09:53.976Z,30.10
2023-05-05T06:10:53.973Z,30.29
2023-05-05T06:11:53.968Z,30.10
2023-05-05T06:12:54.069Z,30.38
2023-05-05T06:13:53.986Z,30.19
2023-05-05T06:14:53.977Z,30.29
2023-05-05T06:15:53.996Z,30.10
2023-05-05T06:16:53.979Z,30.48
2023-05-05T06:17:54.034Z,30.48
2023-05-05T06:18:53.994Z,30.48
2023-05-05T06:19:54.584Z,30.29
2023-05-05T06:20:53.998Z,30.10
2023-05-05T06:21:54.012Z,30.19
2023-05-05T06:22:54.009Z,29.90
2023-05-05T06:23:54.019Z,29.61
2023-05-05T06:24:53.992Z,29.71
2023-05-05T06:25:54.003Z,29.80
2023-05-05T06:26:54.006Z,29.71
2023-05-05T06:27:54.005Z,29.71
2023-05-05T06:28:54.010Z,29.71
2023-05-05T06:29:54.026Z,29.90
2023-05-05T06:30:53.999Z,29.61
2023-05-05T06:31:54.179Z,29.42
2023-05-05T06:32:54.040Z,29.42
2023-05-05T06:33:54.022Z,29.42
2023-05-05T06:34:54.167Z,29.32
2023-05-05T06:35:54.017Z,29.22
2023-05-05T06:36:54.178Z,29.61
2023-05-05T06:37:54.028Z,29.42
2023-05-05T06:38:54.024Z,29.42
2023-05-05T06:39:54.051Z,29.42
2023-05-05T06:40:54.024Z,29.42
2023-05-05T06:41:54.033Z,29.32
2023-05-05T06:42:54.047Z,29.13
2023-05-05T06:43:54.036Z,29.42
2023-05-05T06:44:54.040Z,29.42
2023-05-05T06:45:54.047Z,29.13
2023-05-05T06:46:54.072Z,29.42
2023-05-05T06:47:54.074Z,29.42
2023-05-05T06:48:54.059Z,29.03
2023-05-05T06:49:54.043Z,29.22
2023-05-05T06:50:54.063Z,29.13
2023-05-05T06:51:54.048Z,29.42
2023-05-05T06:52:54.060Z,29.42
2023-05-05T06:53:54.057Z,29.32
2023-05-05T06:54:54.102Z,29.22
2023-05-05T06:55:54.146Z,28.94
2023-05-05T06:56:54.052Z,28.94
2023-05-05T06:57:54.065Z,28.84
2023-05-05T06:58:54.065Z,29.22
2023-05-05T06:59:54.071Z,29.32
2023-05-05T07:00:54.136Z,29.13
2023-05-05T07:01:54.070Z,28.94
2023-05-05T07:02:54.120Z,28.94
2023-05-05T07:03:54.105Z,28.74
2023-05-05T07:04:54.068Z,28.74
2023-05-05T07:05:54.076Z,28.74
2023-05-05T07:06:54.077Z,28.94
2023-05-05T07:07:54.124Z,29.03
2023-05-05T07:08:54.081Z,29.13
2023-05-05T07:09:54.089Z,28.94
2023-05-05T07:10:54.078Z,28.84
2023-05-05T07:11:54.202Z,28.84
2023-05-05T07:12:54.120Z,28.74
2023-05-05T07:13:54.094Z,28.45
2023-05-05T07:14:54.092Z,28.74
2023-05-05T07:15:54.097Z,28.55
2023-05-05T07:16:54.153Z,28.36
2023-05-05T07:17:54.223Z,28.55
2023-05-05T07:18:54.100Z,28.74
2023-05-05T07:19:54.105Z,28.55
2023-05-05T07:20:54.104Z,28.55
2023-05-05T07:21:54.112Z,28.55
2023-05-05T07:22:54.112Z,28.74
2023-05-05T07:23:54.114Z,28.26
2023-05-05T07:24:54.115Z,28.16
2023-05-05T07:25:54.115Z,28.26
2023-05-05T07:26:54.124Z,28.07
2023-05-05T07:27:54.402Z,27.87
2023-05-05T07:28:54.116Z,28.07
2023-05-05T07:29:54.114Z,28.16
2023-05-05T07:30:54.280Z,27.97
2023-05-05T07:31:54.144Z,27.97
2023-05-05T07:32:54.170Z,28.26
2023-05-05T07:33:54.136Z,27.78
2023-05-05T07:34:54.143Z,27.49
2023-05-05T07:35:54.162Z,27.49
2023-05-05T07:36:54.143Z,27.68
2023-05-05T07:37:54.131Z,27.49
2023-05-05T07:38:54.144Z,27.49
2023-05-05T07:39:54.142Z,27.11
2023-05-05T07:40:54.145Z,27.20
2023-05-05T07:41:54.146Z,27.20
2023-05-05T07:42:54.145Z,27.01
2023-05-05T07:43:54.256Z,26.91
2023-05-05T07:44:54.147Z,27.01
2023-05-05T07:45:54.165Z,27.01
2023-05-05T07:46:54.142Z,27.49
2023-05-05T07:47:54.166Z,27.20
2023-05-05T07:48:54.154Z,26.81
2023-05-05T07:49:54.157Z,26.91
2023-05-05T07:50:54.157Z,27.11
2023-05-05T07:51:54.155Z,27.01
2023-05-05T07:53:02.539Z,26.81
2023-05-05T07:53:54.157Z,26.72
2023-05-05T07:54:54.164Z,26.91
2023-05-05T07:55:54.167Z,27.11
2023-05-05T07:56:54.321Z,27.11
2023-05-05T07:57:54.169Z,27.49
2023-05-05T07:58:54.168Z,27.20
2023-05-05T07:59:54.266Z,26.72
2023-05-05T08:00:54.181Z,26.81
2023-05-05T08:01:55.006Z,26.72
2023-05-05T08:02:54.233Z,26.81
2023-05-05T08:03:54.272Z,26.91
2023-05-05T08:04:54.178Z,26.62
2023-05-05T08:05:54.177Z,26.62
2023-05-05T08:06:54.185Z,27.29
2023-05-05T08:07:54.181Z,26.91
2023-05-05T08:08:54.188Z,26.91
2023-05-05T08:09:54.188Z,26.91
2023-05-05T08:10:54.188Z,27.01
2023-05-05T08:11:54.197Z,27.20
2023-05-05T08:12:54.244Z,27.11
2023-05-05T08:13:54.200Z,27.01
2023-05-05T08:14:54.202Z,26.43
2023-05-05T08:15:54.445Z,26.81
2023-05-05T08:16:54.210Z,26.81
2023-05-05T08:17:54.254Z,26.91
2023-05-05T08:18:54.213Z,26.81
2023-05-05T08:19:54.218Z,27.11
2023-05-05T08:20:54.215Z,26.81
2023-05-05T08:21:54.215Z,27.11
2023-05-05T08:22:54.217Z,27.11
2023-05-05T08:23:54.219Z,27.01
2023-05-05T08:24:54.220Z,27.11
2023-05-05T08:25:54.220Z,27.01
2023-05-05T08:26:54.222Z,26.62
2023-05-05T08:27:54.225Z,26.81
2023-05-05T08:28:54.231Z,26.81
2023-05-05T08:29:54.226Z,26.62
2023-05-05T08:30:54.240Z,26.81
2023-05-05T08:31:54.445Z,26.72
2023-05-05T08:32:54.287Z,26.72
2023-05-05T08:33:54.240Z,26.91
2023-05-05T08:34:54.240Z,26.81
2023-05-05T08:35:54.242Z,26.62
2023-05-05T08:36:54.250Z,26.81
2023-05-05T08:37:55.967Z,26.91
2023-05-05T08:38:54.245Z,26.72
2023-05-05T08:39:54.264Z,26.72
2023-05-05T08:40:54.248Z,26.62
2023-05-05T08:41:54.412Z,26.72
2023-05-05T08:42:54.267Z,26.33
2023-05-05T08:43:54.256Z,26.72
2023-05-05T08:44:54.255Z,26.62
2023-05-05T08:45:54.254Z,26.81
2023-05-05T08:46:54.326Z,26.23
2023-05-05T08:47:54.398Z,26.43
2023-05-05T08:48:54.268Z,26.43
2023-05-05T08:49:54.262Z,26.53
2023-05-05T08:50:54.267Z,26.81
2023-05-05T08:51:54.274Z,26.62
2023-05-05T08:52:54.340Z,26.62
2023-05-05T08:53:54.282Z,26.43
2023-05-05T08:54:54.274Z,26.53
2023-05-05T08:55:54.272Z,26.53
2023-05-05T08:56:54.276Z,26.72
2023-05-05T08:57:54.280Z,26.62
2023-05-05T08:58:54.272Z,27.29
2023-05-05T08:59:54.277Z,26.72
2023-05-05T09:00:54.330Z,26.72
2023-05-05T09:01:54.476Z,26.43
2023-05-05T09:02:54.484Z,26.14
2023-05-05T09:03:54.481Z,26.43
2023-05-05T09:04:54.324Z,26.53
2023-05-05T09:05:54.292Z,26.72
2023-05-05T09:06:54.297Z,27.11
2023-05-05T09:07:54.316Z,27.01
2023-05-05T09:08:54.300Z,27.29
2023-05-05T09:09:54.297Z,26.91
2023-05-05T09:10:54.302Z,27.11
2023-05-05T09:11:54.306Z,27.11
2023-05-05T09:12:54.355Z,26.91
2023-05-05T09:13:54.310Z,27.01
2023-05-05T09:14:54.312Z,27.29
2023-05-05T09:15:54.310Z,27.20
2023-05-05T09:16:54.365Z,26.91
2023-05-05T09:17:54.328Z,27.11
2023-05-05T09:18:54.323Z,27.01
2023-05-05T09:19:54.406Z,27.29
2023-05-05T09:20:54.327Z,27.01
2023-05-05T09:21:54.324Z,27.11
2023-05-05T09:22:54.319Z,26.81
2023-05-05T09:23:54.561Z,27.59
2023-05-05T09:24:54.325Z,27.49
2023-05-05T09:25:54.337Z,27.78
2023-05-05T09:26:54.330Z,27.29
2023-05-05T09:27:54.334Z,27.39
2023-05-05T09:28:54.338Z,27.78
2023-05-05T09:29:54.332Z,27.78
2023-05-05T09:30:54.363Z,27.49
2023-05-05T09:31:54.341Z,27.11
2023-05-05T09:32:54.551Z,27.20
2023-05-05T09:33:54.352Z,27.01
2023-05-05T09:34:54.354Z,27.01
2023-05-05T09:35:54.445Z,27.29
2023-05-05T09:36:54.358Z,27.20
2023-05-05T09:37:54.352Z,27.11
2023-05-05T09:38:54.351Z,27.12
2023-05-05T09:39:54.374Z,26.91
2023-05-05T09:40:54.368Z,26.91
2023-05-05T09:41:54.374Z,26.73
2023-05-05T09:42:54.363Z,26.81
2023-05-05T09:43:54.365Z,26.81
2023-05-05T09:44:54.365Z,26.92
2023-05-05T09:45:54.394Z,26.72
2023-05-05T09:46:54.371Z,26.91
2023-05-05T09:47:59.092Z,27.29
2023-05-05T09:48:54.381Z,27.20
2023-05-05T09:49:54.376Z,27.49
2023-05-05T09:50:54.393Z,27.11
2023-05-05T09:51:54.572Z,27.39
2023-05-05T09:52:54.407Z,27.59
2023-05-05T09:53:54.385Z,27.29
2023-05-05T09:54:54.459Z,27.29
2023-05-05T09:55:54.400Z,27.20
2023-05-05T09:56:54.384Z,27.01
2023-05-05T09:57:54.407Z,27.11
2023-05-05T09:58:54.388Z,27.01
2023-05-05T09:59:54.390Z,27.11
2023-05-05T10:00:54.400Z,27.29
2023-05-05T10:01:54.413Z,26.91
2023-05-05T10:02:54.421Z,26.81
2023-05-05T10:03:54.398Z,26.62
2023-05-05T10:04:54.456Z,26.53
2023-05-05T10:05:54.401Z,26.53
2023-05-05T10:06:54.403Z,26.53
2023-05-05T10:07:54.500Z,26.23
2023-05-05T10:08:54.426Z,26.33
2023-05-05T10:09:54.409Z,26.23
2023-05-05T10:10:54.409Z,26.23
2023-05-05T10:11:54.410Z,26.43
2023-05-05T10:12:54.510Z,26.23
2023-05-05T10:13:54.416Z,26.33
2023-05-05T10:14:54.421Z,23.80
2023-05-05T10:15:54.498Z,22.93
2023-05-05T10:16:54.432Z,25.05
2023-05-05T10:18:05.792Z,25.45
2023-05-05T10:18:54.426Z,25.74
2023-05-05T10:19:54.424Z,25.74
2023-05-05T10:20:54.431Z,26.42
2023-05-05T10:21:54.435Z,26.33
2023-05-05T10:22:54.439Z,26.33
2023-05-05T10:23:54.456Z,26.33
2023-05-05T10:24:54.439Z,26.62
2023-05-05T10:25:54.454Z,26.62
2023-05-05T10:26:54.439Z,26.23
2023-05-05T10:27:54.442Z,26.33
2023-05-05T10:28:54.448Z,26.53
2023-05-05T10:29:54.448Z,26.23
2023-05-05T10:30:54.452Z,26.33
2023-05-05T10:31:54.798Z,26.33
2023-05-05T10:33:07.816Z,26.14
2023-05-05T10:33:54.576Z,26.23
2023-05-05T10:34:54.457Z,26.23
2023-05-05T10:35:54.462Z,26.23
2023-05-05T10:36:54.461Z,26.33
2023-05-05T10:37:54.470Z,26.33
2023-05-05T10:38:54.467Z,26.44
2023-05-05T10:39:54.567Z,25.75
2023-05-05T10:40:54.468Z,25.76
2023-05-05T10:41:54.476Z,26.43
2023-05-05T10:42:54.479Z,25.85
2023-05-05T10:43:54.481Z,25.28
2023-05-05T10:44:54.514Z,25.76
2023-05-05T10:45:54.612Z,25.86
2023-05-05T10:46:54.496Z,25.85
2023-05-05T10:47:54.530Z,25.95
2023-05-05T10:48:54.592Z,26.33
2023-05-05T10:49:54.515Z,26.43
2023-05-05T10:50:54.496Z,26.43
2023-05-05T10:51:54.499Z,26.43
2023-05-05T10:52:54.496Z,26.23
2023-05-05T10:53:54.529Z,26.23
2023-05-05T10:54:54.500Z,26.04
2023-05-05T10:55:54.600Z,26.43
2023-05-05T10:56:54.502Z,26.43
2023-05-05T10:57:54.509Z,26.23
2023-05-05T10:59:00.239Z,26.23
2023-05-05T10:59:54.527Z,25.66
2023-05-05T11:00:54.546Z,25.75
2023-05-05T11:01:54.512Z,25.46
2023-05-05T11:02:54.534Z,25.66
2023-05-05T11:03:54.587Z,25.75
2023-05-05T11:04:54.525Z,25.66
2023-05-05T11:05:54.520Z,25.75
2023-05-05T11:06:54.527Z,25.37
2023-05-05T11:07:54.531Z,25.56
2023-05-05T11:08:54.566Z,25.56
2023-05-05T11:09:54.536Z,25.56
2023-05-05T11:10:54.533Z,25.37
2023-05-05T11:11:54.624Z,25.46
2023-05-05T11:12:54.579Z,25.37
2023-05-05T11:13:54.543Z,25.56
2023-05-05T11:14:54.541Z,24.99
2023-05-05T11:15:54.543Z,25.38
2023-05-05T11:16:54.624Z,25.38
2023-05-05T11:17:54.663Z,25.48
2023-05-05T11:18:54.550Z,25.37
2023-05-05T11:19:54.545Z,25.76
2023-05-05T11:20:54.551Z,25.46
2023-05-05T11:21:54.549Z,25.27
2023-05-05T11:22:54.559Z,25.56
2023-05-05T11:23:54.564Z,25.67
2023-05-05T11:24:54.567Z,25.38
2023-05-05T11:25:54.561Z,25.46
2023-05-05T11:26:54.562Z,25.37
2023-05-05T11:27:54.666Z,25.37
2023-05-05T11:28:54.565Z,25.66
2023-05-05T11:29:54.577Z,25.46
2023-05-05T11:30:54.602Z,25.27
2023-05-05T11:31:54.577Z,25.27
2023-05-05T11:32:54.593Z,25.09
2023-05-05T11:33:54.577Z,25.46
2023-05-05T11:34:54.583Z,25.37
2023-05-05T11:35:54.588Z,25.56
2023-05-05T11:36:54.834Z,25.75
2023-05-05T11:37:54.579Z,25.56
2023-05-05T11:38:54.585Z,25.46
2023-05-05T11:39:54.586Z,25.56
2023-05-05T11:40:54.590Z,25.56
2023-05-05T11:41:54.605Z,25.56
2023-05-05T11:42:54.588Z,25.37
2023-05-05T11:43:54.636Z,24.69
2023-05-05T11:44:54.615Z,25.46
2023-05-05T11:45:54.677Z,25.46
2023-05-05T11:46:54.602Z,25.19
2023-05-05T11:47:55.073Z,25.56
2023-05-05T11:48:54.596Z,25.38
2023-05-05T11:49:54.604Z,25.37
2023-05-05T11:50:54.612Z,25.27
2023-05-05T11:51:54.607Z,25.27
2023-05-05T11:52:54.629Z,25.27
2023-05-05T11:53:54.623Z,25.27
2023-05-05T11:54:54.614Z,25.18
2023-05-05T11:55:54.620Z,25.37
2023-05-05T11:56:54.670Z,25.27
2023-05-05T11:57:54.628Z,25.66
2023-05-05T11:58:54.622Z,25.18
2023-05-05T11:59:54.815Z,25.18
2023-05-05T12:00:54.630Z,25.18
2023-05-05T12:01:54.624Z,25.46
2023-05-05T12:02:54.724Z,25.27
2023-05-05T12:03:54.857Z,25.08
2023-05-05T12:04:54.671Z,24.98
2023-05-05T12:05:54.632Z,25.37
2023-05-05T12:06:54.639Z,25.27
2023-05-05T12:07:54.640Z,25.66
2023-05-05T12:08:54.671Z,25.66
2023-05-05T12:09:54.645Z,25.37
2023-05-05T12:10:54.650Z,25.38
2023-05-05T12:11:54.663Z,25.38
2023-05-05T12:12:55.675Z,25.27
2023-05-05T12:13:54.652Z,25.37
2023-05-05T12:14:54.649Z,25.37
2023-05-05T12:15:54.863Z,25.46
2023-05-05T12:16:54.658Z,25.46
2023-05-05T12:17:54.688Z,25.46
2023-05-05T12:18:54.658Z,25.57
2023-05-05T12:19:54.671Z,25.38
2023-05-05T12:20:54.669Z,25.27
2023-05-05T12:21:54.717Z,24.99
2023-05-05T12:22:54.671Z,25.09
2023-05-05T12:23:54.673Z,25.27
2023-05-05T12:24:55.099Z,25.38
2023-05-05T12:25:54.675Z,25.38
2023-05-05T12:26:54.684Z,25.57
2023-05-05T12:27:54.675Z,25.57
2023-05-05T12:28:54.681Z,25.18
2023-05-05T12:29:54.684Z,25.27
2023-05-05T12:30:55.220Z,25.38
2023-05-05T12:31:54.832Z,25.38
2023-05-05T12:32:54.748Z,25.28
2023-05-05T12:33:54.690Z,25.56
2023-05-05T12:34:54.706Z,25.75
2023-05-05T12:35:54.701Z,25.37
2023-05-05T12:36:54.698Z,25.46
2023-05-05T12:37:54.705Z,25.75
2023-05-05T12:38:54.704Z,25.27
2023-05-05T12:39:54.714Z,25.48
2023-05-05T12:40:54.702Z,25.38
2023-05-05T12:41:54.715Z,25.38
2023-05-05T12:42:54.713Z,25.37
2023-05-05T12:43:54.715Z,25.27
2023-05-05T12:44:54.724Z,25.46
2023-05-05T12:45:54.777Z,25.18
2023-05-05T12:46:54.728Z,25.46
2023-05-05T12:47:54.775Z,25.18
2023-05-05T12:48:54.732Z,25.37
2023-05-05T12:49:54.733Z,25.18
2023-05-05T12:50:54.760Z,25.27
2023-05-05T12:51:54.754Z,25.18
2023-05-05T12:52:54.734Z,25.46